sensor_id;sensor_type;location;lat;lon;timestamp;temperature;humidity
5134;DHT22;2585;48.696;10.066;2023-09-18T00:00:34;14.20;88.70
5134;DHT22;2585;48.696;10.066;2023-09-18T00:03:02;14.20;89.00
5134;DHT22;2585;48.696;10.066;2023-09-18T00:05:30;14.20;89.10
5134;DHT22;2585;48.696;10.066;2023-09-18T00:07:57;14.20;89.00
5134;DHT22;2585;48.696;10.066;2023-09-18T00:10:26;14.10;89.00
5134;DHT22;2585;48.696;10.066;2023-09-18T00:12:53;14.10;89.00
5134;DHT22;2585;48.696;10.066;2023-09-18T00:15:19;14.10;88.90
5134;DHT22;2585;48.696;10.066;2023-09-18T00:17:46;14.10;89.00
5134;DHT22;2585;48.696;10.066;2023-09-18T00:20:13;14.10;89.20
5134;DHT22;2585;48.696;10.066;2023-09-18T00:22:40;14.10;89.60
5134;DHT22;2585;48.696;10.066;2023-09-18T00:25:07;14.10;89.80
5134;DHT22;2585;48.696;10.066;2023-09-18T00:27:34;14.00;89.70
5134;DHT22;2585;48.696;10.066;2023-09-18T00:30:04;14.10;89.80
5134;DHT22;2585;48.696;10.066;2023-09-18T00:32:30;14.10;90.00
5134;DHT22;2585;48.696;10.066;2023-09-18T00:34:57;14.00;90.10
5134;DHT22;2585;48.696;10.066;2023-09-18T00:37:24;14.00;90.10
5134;DHT22;2585;48.696;10.066;2023-09-18T00:39:51;13.90;90.10
5134;DHT22;2585;48.696;10.066;2023-09-18T00:42:18;13.90;90.10
5134;DHT22;2585;48.696;10.066;2023-09-18T00:44:45;13.90;90.10
5134;DHT22;2585;48.696;10.066;2023-09-18T00:47:14;13.90;90.20
5134;DHT22;2585;48.696;10.066;2023-09-18T00:49:45;13.90;90.30
5134;DHT22;2585;48.696;10.066;2023-09-18T00:52:14;13.90;90.40
5134;DHT22;2585;48.696;10.066;2023-09-18T00:54:42;13.90;90.40
5134;DHT22;2585;48.696;10.066;2023-09-18T00:57:09;13.90;90.40
5134;DHT22;2585;48.696;10.066;2023-09-18T00:59:38;13.80;90.40
5134;DHT22;2585;48.696;10.066;2023-09-18T01:02:04;13.80;90.50
5134;DHT22;2585;48.696;10.066;2023-09-18T01:04:33;13.80;90.50
5134;DHT22;2585;48.696;10.066;2023-09-18T01:07:00;13.80;90.60
5134;DHT22;2585;48.696;10.066;2023-09-18T01:09:31;13.80;90.60
5134;DHT22;2585;48.696;10.066;2023-09-18T01:12:18;13.70;90.70
5134;DHT22;2585;48.696;10.066;2023-09-18T01:15:01;13.70;90.60
5134;DHT22;2585;48.696;10.066;2023-09-18T01:17:36;13.70;90.70
5134;DHT22;2585;48.696;10.066;2023-09-18T01:20:11;13.70;90.70
5134;DHT22;2585;48.696;10.066;2023-09-18T01:22:38;13.70;90.80
5134;DHT22;2585;48.696;10.066;2023-09-18T01:25:05;13.70;90.80
5134;DHT22;2585;48.696;10.066;2023-09-18T01:27:33;13.70;90.90
5134;DHT22;2585;48.696;10.066;2023-09-18T01:30:00;13.60;90.90
5134;DHT22;2585;48.696;10.066;2023-09-18T01:32:30;13.70;91.00
5134;DHT22;2585;48.696;10.066;2023-09-18T01:35:00;13.60;91.00
5134;DHT22;2585;48.696;10.066;2023-09-18T01:37:30;13.60;91.00
5134;DHT22;2585;48.696;10.066;2023-09-18T01:39:57;13.60;91.10
5134;DHT22;2585;48.696;10.066;2023-09-18T01:42:29;13.60;91.10
5134;DHT22;2585;48.696;10.066;2023-09-18T01:44:56;13.60;91.20
5134;DHT22;2585;48.696;10.066;2023-09-18T01:47:23;13.60;91.20
5134;DHT22;2585;48.696;10.066;2023-09-18T01:49:50;13.50;91.10
5134;DHT22;2585;48.696;10.066;2023-09-18T01:52:17;13.50;91.10
5134;DHT22;2585;48.696;10.066;2023-09-18T01:54:44;13.50;91.10
5134;DHT22;2585;48.696;10.066;2023-09-18T01:57:11;13.50;91.20
5134;DHT22;2585;48.696;10.066;2023-09-18T01:59:39;13.60;91.30
5134;DHT22;2585;48.696;10.066;2023-09-18T02:02:06;13.50;91.30
5134;DHT22;2585;48.696;10.066;2023-09-18T02:04:37;13.60;91.50
5134;DHT22;2585;48.696;10.066;2023-09-18T02:07:24;13.70;91.70
5134;DHT22;2585;48.696;10.066;2023-09-18T02:09:52;13.80;91.80
5134;DHT22;2585;48.696;10.066;2023-09-18T02:12:19;13.80;91.90
5134;DHT22;2585;48.696;10.066;2023-09-18T02:14:46;13.90;92.00
5134;DHT22;2585;48.696;10.066;2023-09-18T02:17:13;14.00;92.10
5134;DHT22;2585;48.696;10.066;2023-09-18T02:19:40;14.10;92.20
5134;DHT22;2585;48.696;10.066;2023-09-18T02:22:07;14.10;92.20
5134;DHT22;2585;48.696;10.066;2023-09-18T02:24:34;14.10;92.30
5134;DHT22;2585;48.696;10.066;2023-09-18T02:27:04;14.20;92.30
5134;DHT22;2585;48.696;10.066;2023-09-18T02:29:31;14.20;92.40
5134;DHT22;2585;48.696;10.066;2023-09-18T02:31:58;14.30;92.50
5134;DHT22;2585;48.696;10.066;2023-09-18T02:34:25;14.30;92.50
5134;DHT22;2585;48.696;10.066;2023-09-18T02:36:52;14.40;92.60
5134;DHT22;2585;48.696;10.066;2023-09-18T02:39:18;14.40;92.70
5134;DHT22;2585;48.696;10.066;2023-09-18T02:41:45;14.40;92.70
5134;DHT22;2585;48.696;10.066;2023-09-18T02:44:12;14.40;92.70
5134;DHT22;2585;48.696;10.066;2023-09-18T02:46:39;14.40;92.70
5134;DHT22;2585;48.696;10.066;2023-09-18T02:49:06;14.40;92.70
5134;DHT22;2585;48.696;10.066;2023-09-18T02:51:33;14.40;92.70
5134;DHT22;2585;48.696;10.066;2023-09-18T02:54:00;14.30;92.70
5134;DHT22;2585;48.696;10.066;2023-09-18T02:56:27;14.30;92.70
5134;DHT22;2585;48.696;10.066;2023-09-18T02:58:54;14.30;92.60
5134;DHT22;2585;48.696;10.066;2023-09-18T03:01:21;14.30;92.60
5134;DHT22;2585;48.696;10.066;2023-09-18T03:03:48;14.30;92.60
5134;DHT22;2585;48.696;10.066;2023-09-18T03:06:15;14.20;92.60
5134;DHT22;2585;48.696;10.066;2023-09-18T03:08:43;14.30;92.60
5134;DHT22;2585;48.696;10.066;2023-09-18T03:11:14;14.30;92.60
5134;DHT22;2585;48.696;10.066;2023-09-18T03:13:45;14.30;92.70
5134;DHT22;2585;48.696;10.066;2023-09-18T03:16:13;14.30;92.70
5134;DHT22;2585;48.696;10.066;2023-09-18T03:18:40;14.30;92.70
5134;DHT22;2585;48.696;10.066;2023-09-18T03:21:07;14.20;92.60
5134;DHT22;2585;48.696;10.066;2023-09-18T03:23:34;14.20;92.60
5134;DHT22;2585;48.696;10.066;2023-09-18T03:26:01;14.20;92.60
5134;DHT22;2585;48.696;10.066;2023-09-18T03:28:29;14.30;92.60
5134;DHT22;2585;48.696;10.066;2023-09-18T03:30:57;14.30;92.60
5134;DHT22;2585;48.696;10.066;2023-09-18T03:33:24;14.20;92.60
5134;DHT22;2585;48.696;10.066;2023-09-18T03:35:52;14.20;92.60
5134;DHT22;2585;48.696;10.066;2023-09-18T03:38:21;14.20;92.60
5134;DHT22;2585;48.696;10.066;2023-09-18T03:40:48;14.20;92.60
5134;DHT22;2585;48.696;10.066;2023-09-18T03:43:15;14.20;92.60
5134;DHT22;2585;48.696;10.066;2023-09-18T03:45:42;14.10;92.50
5134;DHT22;2585;48.696;10.066;2023-09-18T03:48:10;14.10;92.60
5134;DHT22;2585;48.696;10.066;2023-09-18T03:50:37;14.00;92.50
5134;DHT22;2585;48.696;10.066;2023-09-18T03:53:06;14.00;92.50
5134;DHT22;2585;48.696;10.066;2023-09-18T03:55:33;14.00;92.60
5134;DHT22;2585;48.696;10.066;2023-09-18T03:58:00;14.00;92.60
5134;DHT22;2585;48.696;10.066;2023-09-18T04:00:27;13.90;92.60
5134;DHT22;2585;48.696;10.066;2023-09-18T04:02:54;13.90;92.60
5134;DHT22;2585;48.696;10.066;2023-09-18T04:05:21;13.90;92.60
5134;DHT22;2585;48.696;10.066;2023-09-18T04:07:48;13.80;92.60
5134;DHT22;2585;48.696;10.066;2023-09-18T04:10:15;13.80;92.50
5134;DHT22;2585;48.696;10.066;2023-09-18T04:12:46;13.80;92.50
5134;DHT22;2585;48.696;10.066;2023-09-18T04:15:14;13.80;92.50
5134;DHT22;2585;48.696;10.066;2023-09-18T04:17:42;13.80;92.50
5134;DHT22;2585;48.696;10.066;2023-09-18T04:20:09;13.70;92.50
5134;DHT22;2585;48.696;10.066;2023-09-18T04:22:36;13.70;92.50
5134;DHT22;2585;48.696;10.066;2023-09-18T04:25:03;13.80;92.50
5134;DHT22;2585;48.696;10.066;2023-09-18T04:27:32;13.80;92.50
5134;DHT22;2585;48.696;10.066;2023-09-18T04:29:58;13.80;92.60
5134;DHT22;2585;48.696;10.066;2023-09-18T04:32:28;13.90;92.60
5134;DHT22;2585;48.696;10.066;2023-09-18T04:34:56;13.90;92.60
5134;DHT22;2585;48.696;10.066;2023-09-18T04:37:23;14.00;92.70
5134;DHT22;2585;48.696;10.066;2023-09-18T04:39:49;14.00;92.70
5134;DHT22;2585;48.696;10.066;2023-09-18T04:42:17;14.00;92.80
5134;DHT22;2585;48.696;10.066;2023-09-18T04:44:44;14.10;92.80
5134;DHT22;2585;48.696;10.066;2023-09-18T04:47:10;14.20;92.80
5134;DHT22;2585;48.696;10.066;2023-09-18T04:49:37;14.20;92.90
5134;DHT22;2585;48.696;10.066;2023-09-18T04:52:04;14.20;92.90
5134;DHT22;2585;48.696;10.066;2023-09-18T04:54:32;14.20;92.90
5134;DHT22;2585;48.696;10.066;2023-09-18T04:56:58;14.30;92.90
5134;DHT22;2585;48.696;10.066;2023-09-18T04:59:25;14.30;92.90
5134;DHT22;2585;48.696;10.066;2023-09-18T05:01:52;14.30;92.90
5134;DHT22;2585;48.696;10.066;2023-09-18T05:04:19;14.20;92.90
5134;DHT22;2585;48.696;10.066;2023-09-18T05:06:46;14.20;92.90
5134;DHT22;2585;48.696;10.066;2023-09-18T05:09:13;14.30;92.90
5134;DHT22;2585;48.696;10.066;2023-09-18T05:11:41;14.20;92.90
5134;DHT22;2585;48.696;10.066;2023-09-18T05:14:09;14.20;92.90
5134;DHT22;2585;48.696;10.066;2023-09-18T05:16:36;14.20;92.90
5134;DHT22;2585;48.696;10.066;2023-09-18T05:19:03;14.20;92.80
5134;DHT22;2585;48.696;10.066;2023-09-18T05:21:30;14.20;92.90
5134;DHT22;2585;48.696;10.066;2023-09-18T05:23:57;14.20;92.90
5134;DHT22;2585;48.696;10.066;2023-09-18T05:26:24;14.20;92.80
5134;DHT22;2585;48.696;10.066;2023-09-18T05:28:51;14.20;92.90
5134;DHT22;2585;48.696;10.066;2023-09-18T05:31:20;14.20;92.90
5134;DHT22;2585;48.696;10.066;2023-09-18T05:33:47;14.30;92.90
5134;DHT22;2585;48.696;10.066;2023-09-18T05:36:15;14.30;92.90
5134;DHT22;2585;48.696;10.066;2023-09-18T05:38:42;14.30;92.90
5134;DHT22;2585;48.696;10.066;2023-09-18T05:41:10;14.30;92.90
5134;DHT22;2585;48.696;10.066;2023-09-18T05:43:36;14.30;92.90
5134;DHT22;2585;48.696;10.066;2023-09-18T05:46:03;14.30;92.90
5134;DHT22;2585;48.696;10.066;2023-09-18T05:48:30;14.30;92.90
5134;DHT22;2585;48.696;10.066;2023-09-18T05:50:58;14.30;92.90
5134;DHT22;2585;48.696;10.066;2023-09-18T05:53:25;14.30;92.90
5134;DHT22;2585;48.696;10.066;2023-09-18T05:55:52;14.30;92.90
5134;DHT22;2585;48.696;10.066;2023-09-18T05:58:18;14.30;92.90
5134;DHT22;2585;48.696;10.066;2023-09-18T06:00:48;14.40;92.90
5134;DHT22;2585;48.696;10.066;2023-09-18T06:03:16;14.40;92.90
5134;DHT22;2585;48.696;10.066;2023-09-18T06:05:45;14.60;93.00
5134;DHT22;2585;48.696;10.066;2023-09-18T06:08:13;14.60;93.00
5134;DHT22;2585;48.696;10.066;2023-09-18T06:10:42;14.70;93.00
5134;DHT22;2585;48.696;10.066;2023-09-18T06:13:09;14.90;93.10
5134;DHT22;2585;48.696;10.066;2023-09-18T06:15:37;15.00;93.10
5134;DHT22;2585;48.696;10.066;2023-09-18T06:18:03;15.10;93.20
5134;DHT22;2585;48.696;10.066;2023-09-18T06:20:31;15.20;93.20
5134;DHT22;2585;48.696;10.066;2023-09-18T06:22:58;15.30;93.20
5134;DHT22;2585;48.696;10.066;2023-09-18T06:25:24;15.40;93.30
5134;DHT22;2585;48.696;10.066;2023-09-18T06:27:51;15.50;93.30
5134;DHT22;2585;48.696;10.066;2023-09-18T06:30:18;15.60;93.30
5134;DHT22;2585;48.696;10.066;2023-09-18T06:32:45;15.60;93.30
5134;DHT22;2585;48.696;10.066;2023-09-18T06:35:12;15.70;93.30
5134;DHT22;2585;48.696;10.066;2023-09-18T06:37:39;15.80;93.30
5134;DHT22;2585;48.696;10.066;2023-09-18T06:40:06;15.80;93.30
5134;DHT22;2585;48.696;10.066;2023-09-18T06:42:33;15.90;93.30
5134;DHT22;2585;48.696;10.066;2023-09-18T06:45:00;15.90;93.30
5134;DHT22;2585;48.696;10.066;2023-09-18T06:47:28;16.10;93.40
5134;DHT22;2585;48.696;10.066;2023-09-18T06:49:55;16.10;93.40
5134;DHT22;2585;48.696;10.066;2023-09-18T06:52:22;16.20;93.40
5134;DHT22;2585;48.696;10.066;2023-09-18T06:54:49;16.20;93.40
5134;DHT22;2585;48.696;10.066;2023-09-18T06:57:15;16.30;93.40
5134;DHT22;2585;48.696;10.066;2023-09-18T06:59:42;16.50;93.40
5134;DHT22;2585;48.696;10.066;2023-09-18T07:02:09;16.70;93.50
5134;DHT22;2585;48.696;10.066;2023-09-18T07:04:36;17.00;93.50
5134;DHT22;2585;48.696;10.066;2023-09-18T07:07:13;17.20;93.60
5134;DHT22;2585;48.696;10.066;2023-09-18T07:09:41;17.40;93.60
5134;DHT22;2585;48.696;10.066;2023-09-18T07:12:28;17.40;93.40
5134;DHT22;2585;48.696;10.066;2023-09-18T07:14:55;17.50;93.40
5134;DHT22;2585;48.696;10.066;2023-09-18T07:17:21;17.60;93.30
5134;DHT22;2585;48.696;10.066;2023-09-18T07:19:48;17.80;93.40
5134;DHT22;2585;48.696;10.066;2023-09-18T07:22:15;17.90;93.40
5134;DHT22;2585;48.696;10.066;2023-09-18T07:24:42;17.80;93.30
5134;DHT22;2585;48.696;10.066;2023-09-18T07:27:11;17.90;93.30
5134;DHT22;2585;48.696;10.066;2023-09-18T07:29:39;18.00;93.20
5134;DHT22;2585;48.696;10.066;2023-09-18T07:32:06;18.10;93.20
5134;DHT22;2585;48.696;10.066;2023-09-18T07:34:33;18.20;93.20
5134;DHT22;2585;48.696;10.066;2023-09-18T07:36:59;18.40;93.20
5134;DHT22;2585;48.696;10.066;2023-09-18T07:39:26;18.40;93.00
5134;DHT22;2585;48.696;10.066;2023-09-18T07:41:56;18.50;92.90
5134;DHT22;2585;48.696;10.066;2023-09-18T07:44:23;18.60;92.80
5134;DHT22;2585;48.696;10.066;2023-09-18T07:46:50;18.60;92.70
5134;DHT22;2585;48.696;10.066;2023-09-18T07:49:17;18.70;92.60
5134;DHT22;2585;48.696;10.066;2023-09-18T07:51:44;18.90;92.60
5134;DHT22;2585;48.696;10.066;2023-09-18T07:54:14;19.00;92.50
5134;DHT22;2585;48.696;10.066;2023-09-18T07:56:42;19.10;92.30
5134;DHT22;2585;48.696;10.066;2023-09-18T07:59:10;19.10;91.60
5134;DHT22;2585;48.696;10.066;2023-09-18T08:01:37;19.20;91.10
5134;DHT22;2585;48.696;10.066;2023-09-18T08:04:04;19.40;90.60
5134;DHT22;2585;48.696;10.066;2023-09-18T08:06:32;19.50;89.30
5134;DHT22;2585;48.696;10.066;2023-09-18T08:09:00;19.60;88.10
5134;DHT22;2585;48.696;10.066;2023-09-18T08:11:27;19.50;85.30
5134;DHT22;2585;48.696;10.066;2023-09-18T08:13:54;19.60;83.90
5134;DHT22;2585;48.696;10.066;2023-09-18T08:16:21;19.80;71.40
5134;DHT22;2585;48.696;10.066;2023-09-18T08:18:47;20.10;1.00
5134;DHT22;2585;48.696;10.066;2023-09-18T08:21:15;20.30;68.40
5134;DHT22;2585;48.696;10.066;2023-09-18T08:23:43;20.50;86.70
5134;DHT22;2585;48.696;10.066;2023-09-18T08:26:10;20.70;1.00
5134;DHT22;2585;48.696;10.066;2023-09-18T08:28:37;20.80;69.60
5134;DHT22;2585;48.696;10.066;2023-09-18T08:31:10;20.90;94.90
5134;DHT22;2585;48.696;10.066;2023-09-18T08:33:37;21.10;1.00
5134;DHT22;2585;48.696;10.066;2023-09-18T08:36:04;21.20;87.10
5134;DHT22;2585;48.696;10.066;2023-09-18T08:38:31;21.30;30.80
5134;DHT22;2585;48.696;10.066;2023-09-18T08:40:58;21.40;1.00
5134;DHT22;2585;48.696;10.066;2023-09-18T08:43:26;21.50;90.10
5134;DHT22;2585;48.696;10.066;2023-09-18T08:45:54;21.50;68.70
5134;DHT22;2585;48.696;10.066;2023-09-18T08:48:23;21.60;1.00
5134;DHT22;2585;48.696;10.066;2023-09-18T08:50:51;21.50;94.60
5134;DHT22;2585;48.696;10.066;2023-09-18T08:53:18;21.50;91.40
5134;DHT22;2585;48.696;10.066;2023-09-18T08:55:45;21.40;84.80
5134;DHT22;2585;48.696;10.066;2023-09-18T08:58:12;21.40;90.30
5134;DHT22;2585;48.696;10.066;2023-09-18T09:00:39;21.40;74.00
5134;DHT22;2585;48.696;10.066;2023-09-18T09:03:06;21.40;83.70
5134;DHT22;2585;48.696;10.066;2023-09-18T09:05:33;21.50;84.90
5134;DHT22;2585;48.696;10.066;2023-09-18T09:08:00;21.50;1.00
5134;DHT22;2585;48.696;10.066;2023-09-18T09:10:28;21.40;77.80
5134;DHT22;2585;48.696;10.066;2023-09-18T09:12:59;21.40;1.00
5134;DHT22;2585;48.696;10.066;2023-09-18T09:15:29;21.40;1.00
5134;DHT22;2585;48.696;10.066;2023-09-18T09:18:06;21.40;1.00
5134;DHT22;2585;48.696;10.066;2023-09-18T09:20:34;21.40;70.80
5134;DHT22;2585;48.696;10.066;2023-09-18T09:23:04;21.40;2.60
5134;DHT22;2585;48.696;10.066;2023-09-18T09:25:32;21.30;3.00
5134;DHT22;2585;48.696;10.066;2023-09-18T09:28:05;21.10;1.00
5134;DHT22;2585;48.696;10.066;2023-09-18T09:30:33;21.00;71.50
5134;DHT22;2585;48.696;10.066;2023-09-18T09:33:02;20.80;1.00
5134;DHT22;2585;48.696;10.066;2023-09-18T09:35:34;20.70;62.30
5134;DHT22;2585;48.696;10.066;2023-09-18T09:38:09;20.70;1.00
5134;DHT22;2585;48.696;10.066;2023-09-18T09:40:41;20.60;12.70
5134;DHT22;2585;48.696;10.066;2023-09-18T09:43:12;20.70;47.20
5134;DHT22;2585;48.696;10.066;2023-09-18T09:45:46;20.80;92.70
5134;DHT22;2585;48.696;10.066;2023-09-18T09:48:12;20.80;1.00
5134;DHT22;2585;48.696;10.066;2023-09-18T09:50:44;20.70;1.00
5134;DHT22;2585;48.696;10.066;2023-09-18T09:53:15;20.60;91.30
5134;DHT22;2585;48.696;10.066;2023-09-18T09:55:42;20.50;60.00
5134;DHT22;2585;48.696;10.066;2023-09-18T09:58:10;20.40;44.70
5134;DHT22;2585;48.696;10.066;2023-09-18T10:00:41;20.40;86.90
5134;DHT22;2585;48.696;10.066;2023-09-18T10:03:12;20.30;52.90
5134;DHT22;2585;48.696;10.066;2023-09-18T10:05:41;20.30;1.00
5134;DHT22;2585;48.696;10.066;2023-09-18T10:08:10;20.20;1.00
5134;DHT22;2585;48.696;10.066;2023-09-18T10:10:42;20.10;1.00
5134;DHT22;2585;48.696;10.066;2023-09-18T10:13:12;20.10;69.60
5134;DHT22;2585;48.696;10.066;2023-09-18T10:15:42;20.10;72.70
5134;DHT22;2585;48.696;10.066;2023-09-18T10:18:27;20.20;55.40
5134;DHT22;2585;48.696;10.066;2023-09-18T10:21:03;20.00;69.60
5134;DHT22;2585;48.696;10.066;2023-09-18T10:26:24;19.70;94.30
5134;DHT22;2585;48.696;10.066;2023-09-18T10:28:53;19.50;8.60
5134;DHT22;2585;48.696;10.066;2023-09-18T10:31:28;19.40;74.00
5134;DHT22;2585;48.696;10.066;2023-09-18T10:33:58;19.30;92.30
5134;DHT22;2585;48.696;10.066;2023-09-18T10:36:26;19.20;26.20
5134;DHT22;2585;48.696;10.066;2023-09-18T10:38:59;19.10;44.60
5134;DHT22;2585;48.696;10.066;2023-09-18T10:41:27;18.80;1.00
5134;DHT22;2585;48.696;10.066;2023-09-18T10:43:54;18.70;30.90
5134;DHT22;2585;48.696;10.066;2023-09-18T10:46:27;18.60;91.40
5134;DHT22;2585;48.696;10.066;2023-09-18T10:48:54;18.40;71.40
5134;DHT22;2585;48.696;10.066;2023-09-18T10:51:22;18.10;1.00
5134;DHT22;2585;48.696;10.066;2023-09-18T10:53:50;18.00;1.00
5134;DHT22;2585;48.696;10.066;2023-09-18T10:56:22;17.90;1.00
5134;DHT22;2585;48.696;10.066;2023-09-18T10:59:00;17.90;1.00
5134;DHT22;2585;48.696;10.066;2023-09-18T11:01:31;17.90;1.00
5134;DHT22;2585;48.696;10.066;2023-09-18T11:04:01;17.80;20.30
5134;DHT22;2585;48.696;10.066;2023-09-18T11:06:29;17.80;53.20
5134;DHT22;2585;48.696;10.066;2023-09-18T11:09:03;17.80;52.40
5134;DHT22;2585;48.696;10.066;2023-09-18T11:11:32;17.80;36.20
5134;DHT22;2585;48.696;10.066;2023-09-18T11:14:00;17.80;52.50
5134;DHT22;2585;48.696;10.066;2023-09-18T11:24:21;17.60;72.20
5134;DHT22;2585;48.696;10.066;2023-09-18T11:26:50;17.50;75.20
5134;DHT22;2585;48.696;10.066;2023-09-18T11:29:23;17.50;77.30
5134;DHT22;2585;48.696;10.066;2023-09-18T11:31:55;17.50;79.50
5134;DHT22;2585;48.696;10.066;2023-09-18T11:34:24;17.40;79.80
5134;DHT22;2585;48.696;10.066;2023-09-18T11:36:53;17.30;79.60
5134;DHT22;2585;48.696;10.066;2023-09-18T11:39:37;17.30;79.40
5134;DHT22;2585;48.696;10.066;2023-09-18T11:44:40;17.40;82.30
5134;DHT22;2585;48.696;10.066;2023-09-18T11:47:14;17.40;83.00
5134;DHT22;2585;48.696;10.066;2023-09-18T11:49:57;17.40;84.10
5134;DHT22;2585;48.696;10.066;2023-09-18T11:52:29;17.30;85.30
5134;DHT22;2585;48.696;10.066;2023-09-18T11:54:58;17.30;85.90
5134;DHT22;2585;48.696;10.066;2023-09-18T11:57:26;17.20;84.70
5134;DHT22;2585;48.696;10.066;2023-09-18T11:59:56;17.20;85.30
5134;DHT22;2585;48.696;10.066;2023-09-18T12:02:28;17.10;86.00
5134;DHT22;2585;48.696;10.066;2023-09-18T12:05:18;17.10;86.10
5134;DHT22;2585;48.696;10.066;2023-09-18T12:07:52;17.10;87.30
5134;DHT22;2585;48.696;10.066;2023-09-18T12:10:20;17.10;88.50
5134;DHT22;2585;48.696;10.066;2023-09-18T12:12:50;17.20;88.50
5134;DHT22;2585;48.696;10.066;2023-09-18T12:15:17;17.10;88.40
5134;DHT22;2585;48.696;10.066;2023-09-18T12:17:46;17.00;87.80
5134;DHT22;2585;48.696;10.066;2023-09-18T12:20:17;16.90;87.10
5134;DHT22;2585;48.696;10.066;2023-09-18T12:22:48;16.90;87.50
5134;DHT22;2585;48.696;10.066;2023-09-18T12:25:16;16.90;88.00
5134;DHT22;2585;48.696;10.066;2023-09-18T12:27:45;16.90;89.50
5134;DHT22;2585;48.696;10.066;2023-09-18T12:30:12;16.80;90.00
5134;DHT22;2585;48.696;10.066;2023-09-18T12:32:47;16.70;90.10
5134;DHT22;2585;48.696;10.066;2023-09-18T12:35:16;16.70;90.10
5134;DHT22;2585;48.696;10.066;2023-09-18T12:37:45;16.70;90.40
5134;DHT22;2585;48.696;10.066;2023-09-18T12:40:29;16.70;90.60
5134;DHT22;2585;48.696;10.066;2023-09-18T12:42:57;16.70;90.80
5134;DHT22;2585;48.696;10.066;2023-09-18T12:45:28;16.70;90.60
5134;DHT22;2585;48.696;10.066;2023-09-18T12:47:57;16.80;90.90
5134;DHT22;2585;48.696;10.066;2023-09-18T12:50:25;16.80;91.20
5134;DHT22;2585;48.696;10.066;2023-09-18T12:52:52;16.90;91.30
5134;DHT22;2585;48.696;10.066;2023-09-18T12:55:26;16.80;91.30
5134;DHT22;2585;48.696;10.066;2023-09-18T12:57:54;16.80;91.30
5134;DHT22;2585;48.696;10.066;2023-09-18T13:00:22;16.70;91.20
5134;DHT22;2585;48.696;10.066;2023-09-18T13:02:50;16.80;91.40
5134;DHT22;2585;48.696;10.066;2023-09-18T13:05:23;16.70;91.50
5134;DHT22;2585;48.696;10.066;2023-09-18T13:07:54;16.70;91.70
5134;DHT22;2585;48.696;10.066;2023-09-18T13:10:22;16.80;91.90
5134;DHT22;2585;48.696;10.066;2023-09-18T13:12:54;16.80;91.90
5134;DHT22;2585;48.696;10.066;2023-09-18T13:15:32;16.90;92.10
5134;DHT22;2585;48.696;10.066;2023-09-18T13:18:01;17.00;92.20
5134;DHT22;2585;48.696;10.066;2023-09-18T13:20:35;17.20;92.10
5134;DHT22;2585;48.696;10.066;2023-09-18T13:23:02;17.70;92.40
5134;DHT22;2585;48.696;10.066;2023-09-18T13:25:35;17.80;92.20
5134;DHT22;2585;48.696;10.066;2023-09-18T13:28:05;17.90;91.80
5134;DHT22;2585;48.696;10.066;2023-09-18T13:30:33;17.90;91.60
5134;DHT22;2585;48.696;10.066;2023-09-18T13:33:08;17.70;91.00
5134;DHT22;2585;48.696;10.066;2023-09-18T13:35:37;17.80;90.80
5134;DHT22;2585;48.696;10.066;2023-09-18T13:38:05;17.80;90.70
5134;DHT22;2585;48.696;10.066;2023-09-18T13:40:32;17.90;90.70
5134;DHT22;2585;48.696;10.066;2023-09-18T13:43:00;17.90;90.60
5134;DHT22;2585;48.696;10.066;2023-09-18T13:45:26;17.90;91.00
5134;DHT22;2585;48.696;10.066;2023-09-18T13:47:53;17.80;90.30
5134;DHT22;2585;48.696;10.066;2023-09-18T13:50:21;17.80;90.20
5134;DHT22;2585;48.696;10.066;2023-09-18T13:52:48;17.90;90.60
5134;DHT22;2585;48.696;10.066;2023-09-18T13:55:15;17.90;90.70
5134;DHT22;2585;48.696;10.066;2023-09-18T13:57:41;18.00;90.80
5134;DHT22;2585;48.696;10.066;2023-09-18T14:00:09;18.00;90.50
5134;DHT22;2585;48.696;10.066;2023-09-18T14:02:39;17.90;89.00
5134;DHT22;2585;48.696;10.066;2023-09-18T14:05:08;18.00;89.40
5134;DHT22;2585;48.696;10.066;2023-09-18T14:07:37;18.00;89.90
5134;DHT22;2585;48.696;10.066;2023-09-18T14:10:08;18.00;87.20
5134;DHT22;2585;48.696;10.066;2023-09-18T14:12:40;17.90;86.30
5134;DHT22;2585;48.696;10.066;2023-09-18T14:15:08;17.80;87.50
5134;DHT22;2585;48.696;10.066;2023-09-18T14:17:36;17.70;88.00
5134;DHT22;2585;48.696;10.066;2023-09-18T14:20:05;17.90;88.40
5134;DHT22;2585;48.696;10.066;2023-09-18T14:22:35;18.00;89.30
5134;DHT22;2585;48.696;10.066;2023-09-18T14:25:03;18.10;88.80
5134;DHT22;2585;48.696;10.066;2023-09-18T14:27:32;18.10;86.90
5134;DHT22;2585;48.696;10.066;2023-09-18T14:29:59;18.20;84.80
5134;DHT22;2585;48.696;10.066;2023-09-18T14:32:27;18.30;85.10
5134;DHT22;2585;48.696;10.066;2023-09-18T14:34:54;18.30;84.30
5134;DHT22;2585;48.696;10.066;2023-09-18T14:37:21;18.30;83.40
5134;DHT22;2585;48.696;10.066;2023-09-18T14:39:48;18.30;84.30
5134;DHT22;2585;48.696;10.066;2023-09-18T14:42:15;18.20;81.00
5134;DHT22;2585;48.696;10.066;2023-09-18T14:44:41;18.00;83.40
5134;DHT22;2585;48.696;10.066;2023-09-18T14:47:11;18.00;84.20
5134;DHT22;2585;48.696;10.066;2023-09-18T14:49:39;18.10;84.70
5134;DHT22;2585;48.696;10.066;2023-09-18T14:52:06;18.20;84.90
5134;DHT22;2585;48.696;10.066;2023-09-18T14:54:33;18.30;83.20
5134;DHT22;2585;48.696;10.066;2023-09-18T14:57:00;18.30;82.20
5134;DHT22;2585;48.696;10.066;2023-09-18T14:59:28;18.20;78.60
5134;DHT22;2585;48.696;10.066;2023-09-18T15:02:07;18.30;77.80
5134;DHT22;2585;48.696;10.066;2023-09-18T15:04:34;18.50;82.30
5134;DHT22;2585;48.696;10.066;2023-09-18T15:07:02;18.70;81.80
5134;DHT22;2585;48.696;10.066;2023-09-18T15:09:29;18.60;78.00
5134;DHT22;2585;48.696;10.066;2023-09-18T15:11:56;18.70;76.20
5134;DHT22;2585;48.696;10.066;2023-09-18T15:14:23;18.70;78.10
5134;DHT22;2585;48.696;10.066;2023-09-18T15:16:51;18.70;72.20
5134;DHT22;2585;48.696;10.066;2023-09-18T15:19:18;18.70;73.30
5134;DHT22;2585;48.696;10.066;2023-09-18T15:21:46;18.70;74.40
5134;DHT22;2585;48.696;10.066;2023-09-18T15:24:13;18.50;73.30
5134;DHT22;2585;48.696;10.066;2023-09-18T15:26:40;18.40;73.40
5134;DHT22;2585;48.696;10.066;2023-09-18T15:29:08;18.30;73.30
5134;DHT22;2585;48.696;10.066;2023-09-18T15:31:35;18.40;73.40
5134;DHT22;2585;48.696;10.066;2023-09-18T15:34:02;18.40;73.50
5134;DHT22;2585;48.696;10.066;2023-09-18T15:36:30;18.30;73.40
5134;DHT22;2585;48.696;10.066;2023-09-18T15:38:58;18.40;71.90
5134;DHT22;2585;48.696;10.066;2023-09-18T15:41:26;18.30;70.30
5134;DHT22;2585;48.696;10.066;2023-09-18T15:43:55;18.10;71.50
5134;DHT22;2585;48.696;10.066;2023-09-18T15:46:22;18.00;68.20
5134;DHT22;2585;48.696;10.066;2023-09-18T15:48:50;17.90;70.90
5134;DHT22;2585;48.696;10.066;2023-09-18T15:51:17;17.90;74.40
5134;DHT22;2585;48.696;10.066;2023-09-18T15:53:45;17.80;76.60
5134;DHT22;2585;48.696;10.066;2023-09-18T15:56:12;17.80;75.80
5134;DHT22;2585;48.696;10.066;2023-09-18T15:58:40;17.90;76.90
5134;DHT22;2585;48.696;10.066;2023-09-18T16:01:06;17.90;75.90
5134;DHT22;2585;48.696;10.066;2023-09-18T16:03:37;17.90;75.80
5134;DHT22;2585;48.696;10.066;2023-09-18T16:06:07;17.90;76.50
5134;DHT22;2585;48.696;10.066;2023-09-18T16:08:34;17.80;75.20